createdAt,value
2022-10-07T00:01:04.271Z,8.80
2022-10-07T00:03:32.067Z,10.77
2022-10-07T00:06:20.547Z,13.87
2022-10-07T00:08:50.705Z,10.20
2022-10-07T00:11:21.296Z,12.02
2022-10-07T00:13:52.597Z,11.43
2022-10-07T00:16:26.242Z,9.87
2022-10-07T00:18:58.231Z,10.88
2022-10-07T00:21:28.193Z,9.90
2022-10-07T00:23:55.597Z,10.70
2022-10-07T00:26:25.557Z,12.55
2022-10-07T00:28:53.170Z,13.65
2022-10-07T00:31:23.026Z,10.55
2022-10-07T00:33:51.365Z,12.85
2022-10-07T00:36:23.312Z,10.35
2022-10-07T00:39:00.485Z,12.27
2022-10-07T00:41:37.481Z,14.18
2022-10-07T00:44:32.444Z,12.48
2022-10-07T00:47:03.256Z,11.82
2022-10-07T00:49:36.369Z,13.38
2022-10-07T00:52:04.594Z,11.13
2022-10-07T00:54:31.737Z,12.48
2022-10-07T00:56:59.201Z,12.70
2022-10-07T00:59:27.459Z,16.52
2022-10-07T01:01:54.583Z,15.35
2022-10-07T01:04:21.731Z,15.70
2022-10-07T01:06:48.911Z,12.32
2022-10-07T01:09:16.127Z,9.55
2022-10-07T01:12:01.962Z,14.20
2022-10-07T01:14:59.939Z,14.07
2022-10-07T01:18:02.168Z,15.20
2022-10-07T01:20:35.752Z,13.88
2022-10-07T01:23:31.075Z,12.80
2022-10-07T01:26:26.142Z,14.23
2022-10-07T01:28:58.782Z,13.90
2022-10-07T01:31:33.118Z,13.95
2022-10-07T01:34:00.855Z,11.98
2022-10-07T01:36:28.588Z,11.10
2022-10-07T01:39:02.607Z,19.00
2022-10-07T01:41:31.405Z,14.67
2022-10-07T01:44:00.158Z,13.82
2022-10-07T01:46:28.507Z,17.23
2022-10-07T01:48:58.710Z,21.03
2022-10-07T01:51:30.256Z,14.88
2022-10-07T01:54:27.903Z,15.23
2022-10-07T01:57:21.935Z,13.33
2022-10-07T02:00:07.269Z,13.07
2022-10-07T02:03:12.095Z,15.50
2022-10-07T02:05:56.127Z,15.73
2022-10-07T02:08:48.851Z,14.48
2022-10-07T02:11:27.208Z,12.55
2022-10-07T02:14:08.147Z,15.85
2022-10-07T02:16:49.314Z,15.43
2022-10-07T02:19:34.120Z,13.73
2022-10-07T02:22:03.642Z,16.23
2022-10-07T02:24:35.733Z,13.57
2022-10-07T02:27:16.222Z,16.87
2022-10-07T02:29:49.265Z,13.63
2022-10-07T02:32:21.186Z,16.77
2022-10-07T02:34:55.684Z,16.65
2022-10-07T02:37:27.499Z,18.10
2022-10-07T02:39:56.841Z,14.33
2022-10-07T02:42:27.143Z,18.08
2022-10-07T02:45:11.383Z,18.42
2022-10-07T02:47:55.202Z,17.20
2022-10-07T02:50:26.652Z,15.23
2022-10-07T02:52:56.052Z,13.98
2022-10-07T02:55:26.871Z,18.63
2022-10-07T02:57:58.968Z,13.07
2022-10-07T03:00:29.886Z,11.65
2022-10-07T03:03:02.531Z,15.80
2022-10-07T03:05:42.496Z,13.60
2022-10-07T03:08:11.174Z,16.00
2022-10-07T03:10:40.833Z,14.85
2022-10-07T03:13:09.724Z,15.82
2022-10-07T03:15:42.527Z,14.85
2022-10-07T03:18:26.435Z,13.45
2022-10-07T03:21:00.131Z,17.37
2022-10-07T03:23:29.589Z,15.27
2022-10-07T03:25:58.774Z,11.40
2022-10-07T03:28:28.951Z,19.92
2022-10-07T03:31:05.160Z,18.17
2022-10-07T03:33:32.454Z,14.52
2022-10-07T03:35:59.620Z,18.25
2022-10-07T03:38:26.913Z,19.08
2022-10-07T03:40:54.271Z,13.68
2022-10-07T03:43:21.504Z,16.10
2022-10-07T03:45:52.205Z,18.65
2022-10-07T03:48:19.508Z,18.88
2022-10-07T03:50:52.092Z,15.95
2022-10-07T03:53:21.478Z,17.70
2022-10-07T03:55:48.619Z,18.17
2022-10-07T03:58:16.598Z,16.70
2022-10-07T04:00:45.182Z,15.10
2022-10-07T04:03:14.210Z,18.20
2022-10-07T04:05:41.862Z,24.75
2022-10-07T04:08:11.906Z,20.23
2022-10-07T04:10:39.363Z,16.70
2022-10-07T04:13:06.515Z,16.92
2022-10-07T04:15:34.379Z,18.15
2022-10-07T04:18:01.766Z,17.83
2022-10-07T04:20:30.398Z,18.73
2022-10-07T04:22:57.786Z,15.75
2022-10-07T04:25:34.233Z,16.00
2022-10-07T04:28:13.086Z,12.32
2022-10-07T04:30:43.491Z,16.80
2022-10-07T04:33:12.462Z,18.92
2022-10-07T04:35:40.933Z,15.83
2022-10-07T04:38:10.687Z,20.33
2022-10-07T04:40:42.038Z,22.20
2022-10-07T04:43:20.514Z,13.38
2022-10-07T04:45:54.316Z,14.63
2022-10-07T04:48:23.888Z,19.13
2022-10-07T04:50:52.221Z,17.38
2022-10-07T04:53:21.880Z,18.70
2022-10-07T04:55:51.864Z,19.13
2022-10-07T04:58:20.779Z,20.00
2022-10-07T05:00:50.728Z,13.50
2022-10-07T05:03:21.882Z,15.25
2022-10-07T05:05:52.464Z,12.97
2022-10-07T05:08:22.279Z,15.03
2022-10-07T05:10:58.402Z,17.60
2022-10-07T05:13:27.564Z,18.17
2022-10-07T05:15:57.151Z,15.35
2022-10-07T05:18:26.414Z,13.90
2022-10-07T05:20:56.277Z,23.73
2022-10-07T05:23:28.611Z,17.42
2022-10-07T05:26:01.380Z,10.80
2022-10-07T05:28:30.528Z,12.55
2022-10-07T05:31:02.960Z,17.48
2022-10-07T05:33:31.570Z,16.00
2022-10-07T05:35:59.592Z,12.02
2022-10-07T05:38:27.187Z,17.40
2022-10-07T05:40:59.405Z,14.80
2022-10-07T05:43:30.386Z,14.83
2022-10-07T05:46:29.649Z,16.80
2022-10-07T05:48:58.614Z,14.45
2022-10-07T05:51:31.291Z,15.77
2022-10-07T05:54:00.049Z,12.15
2022-10-07T05:56:34.847Z,13.25
2022-10-07T05:59:02.504Z,17.20
2022-10-07T06:01:30.644Z,15.57
2022-10-07T06:04:03.140Z,14.18
2022-10-07T06:06:35.190Z,14.95
2022-10-07T06:09:24.885Z,15.57
2022-10-07T06:12:11.183Z,16.15
2022-10-07T06:14:39.599Z,13.53
2022-10-07T06:17:08.202Z,12.45
2022-10-07T06:19:37.519Z,15.60
2022-10-07T06:22:07.094Z,10.43
2022-10-07T06:24:36.892Z,13.27
2022-10-07T06:27:04.123Z,16.60
2022-10-07T06:29:32.034Z,14.05
2022-10-07T06:32:00.084Z,14.60
2022-10-07T06:34:27.522Z,16.42
2022-10-07T06:36:56.280Z,18.15
2022-10-07T06:39:23.799Z,14.23
2022-10-07T06:41:54.360Z,12.00
2022-10-07T06:44:44.696Z,12.38
2022-10-07T06:47:16.053Z,12.97
2022-10-07T06:49:45.021Z,11.25
2022-10-07T06:52:13.067Z,16.60
2022-10-07T06:54:41.782Z,14.35
2022-10-07T06:57:33.022Z,10.55
2022-10-07T06:59:56.790Z,11.30
2022-10-07T07:02:25.461Z,12.52
2022-10-07T07:04:57.568Z,11.27
2022-10-07T07:07:25.589Z,16.40
2022-10-07T07:09:52.839Z,10.65
2022-10-07T07:12:25.094Z,14.52
2022-10-07T07:14:52.739Z,11.27
2022-10-07T07:17:21.302Z,12.57
2022-10-07T07:19:48.442Z,13.00
2022-10-07T07:22:16.690Z,13.07
2022-10-07T07:24:44.493Z,13.98
2022-10-07T07:27:14.515Z,15.48
2022-10-07T07:29:43.281Z,16.38
2022-10-07T07:32:11.541Z,13.77
2022-10-07T07:34:42.304Z,11.95
2022-10-07T07:37:13.910Z,14.73
2022-10-07T07:39:45.802Z,9.82
2022-10-07T07:42:17.309Z,11.80
2022-10-07T07:44:44.548Z,12.88
2022-10-07T07:47:18.863Z,13.35
2022-10-07T07:49:49.125Z,13.27
2022-10-07T07:52:25.503Z,14.52
2022-10-07T07:54:57.801Z,16.33
2022-10-07T07:57:28.037Z,13.68
2022-10-07T07:59:58.188Z,13.13
2022-10-07T08:02:25.928Z,13.43
2022-10-07T08:04:53.863Z,17.13
2022-10-07T08:07:21.642Z,11.27
2022-10-07T08:09:50.889Z,17.88
2022-10-07T08:12:20.986Z,12.35
2022-10-07T08:14:50.526Z,9.95
2022-10-07T08:17:17.924Z,9.90
2022-10-07T08:19:45.601Z,13.10
2022-10-07T08:22:17.433Z,12.45
2022-10-07T08:24:47.054Z,11.95
2022-10-07T08:27:17.605Z,11.75
2022-10-07T08:29:45.421Z,13.32
2022-10-07T08:32:12.607Z,11.85
2022-10-07T08:34:40.195Z,12.35
2022-10-07T08:37:07.363Z,10.77
2022-10-07T08:39:34.530Z,11.00
2022-10-07T08:42:13.063Z,12.13
2022-10-07T08:44:42.798Z,13.10
2022-10-07T08:47:16.161Z,14.90
2022-10-07T08:50:04.168Z,14.32
2022-10-07T08:52:40.122Z,14.77
2022-10-07T08:55:20.867Z,13.07
2022-10-07T08:58:13.985Z,13.80
2022-10-07T09:00:50.588Z,13.00
2022-10-07T09:03:36.715Z,16.57
2022-10-07T09:06:10.401Z,11.85
2022-10-07T09:08:42.026Z,15.13
2022-10-07T09:11:16.233Z,17.23
2022-10-07T09:13:52.210Z,17.73
2022-10-07T09:16:31.970Z,13.02
2022-10-07T09:19:01.631Z,7.93
2022-10-07T09:21:42.259Z,12.02
2022-10-07T09:24:28.163Z,13.45
2022-10-07T09:26:59.121Z,14.63
2022-10-07T09:29:28.800Z,15.70
2022-10-07T09:31:57.985Z,14.93
2022-10-07T09:34:30.744Z,13.47
2022-10-07T09:37:17.509Z,11.73
2022-10-07T09:39:46.595Z,13.52
2022-10-07T09:42:29.634Z,12.57
2022-10-07T09:45:01.937Z,12.32
2022-10-07T09:47:37.218Z,16.67
2022-10-07T09:50:04.567Z,12.93
2022-10-07T09:52:32.209Z,14.30
2022-10-07T09:55:31.794Z,16.92
2022-10-07T09:58:01.145Z,15.27
2022-10-07T10:00:30.360Z,14.25
2022-10-07T10:03:07.404Z,14.10
2022-10-07T10:05:57.342Z,12.40
2022-10-07T10:08:32.350Z,11.10
2022-10-07T10:11:20.960Z,14.13
2022-10-07T10:13:50.465Z,14.07
2022-10-07T10:16:40.470Z,12.05
2022-10-07T10:19:27.478Z,10.93
2022-10-07T10:21:56.845Z,15.50
2022-10-07T10:24:44.359Z,13.68
2022-10-07T10:27:27.969Z,14.25
2022-10-07T10:29:55.047Z,14.88
2022-10-07T10:32:30.951Z,10.88
2022-10-07T10:35:22.130Z,19.43
2022-10-07T10:38:21.186Z,11.98
2022-10-07T10:40:56.027Z,14.02
2022-10-07T10:43:28.982Z,12.25
2022-10-07T10:46:09.478Z,17.60
2022-10-07T10:48:50.589Z,13.90
2022-10-07T10:51:31.812Z,13.85
2022-10-07T10:54:14.417Z,13.30
2022-10-07T10:56:45.666Z,12.43
2022-10-07T10:59:41.175Z,12.20
2022-10-07T11:02:38.642Z,8.93
2022-10-07T11:05:34.352Z,15.87
2022-10-07T11:08:27.100Z,12.50
2022-10-07T11:11:01.973Z,11.23
2022-10-07T11:13:35.255Z,13.40
2022-10-07T11:16:19.234Z,13.88
2022-10-07T11:18:58.871Z,11.05
2022-10-07T11:21:31.502Z,12.10
2022-10-07T11:24:02.048Z,13.60
2022-10-07T11:26:50.955Z,10.43
2022-10-07T11:29:41.015Z,11.18
2022-10-07T11:32:16.370Z,9.90
2022-10-07T11:34:58.887Z,13.82
2022-10-07T11:37:29.015Z,10.63
2022-10-07T11:39:56.296Z,15.55
2022-10-07T11:42:27.251Z,12.25
2022-10-07T11:45:28.306Z,11.63
2022-10-07T11:48:00.124Z,10.38
2022-10-07T11:50:51.252Z,11.45
2022-10-07T11:53:23.983Z,11.93
2022-10-07T11:55:56.707Z,8.52
2022-10-07T11:58:27.921Z,11.60
2022-10-07T12:01:26.175Z,13.07
2022-10-07T12:04:20.978Z,12.15
2022-10-07T12:07:25.674Z,8.65
2022-10-07T12:10:01.919Z,9.80
2022-10-07T12:12:47.433Z,11.63
2022-10-07T12:15:33.032Z,9.27
2022-10-07T12:18:04.599Z,9.73
2022-10-07T12:20:34.632Z,10.60
2022-10-07T12:23:23.998Z,11.90
2022-10-07T12:25:59.700Z,10.48
2022-10-07T12:28:26.855Z,9.60
2022-10-07T12:30:56.558Z,7.68
2022-10-07T12:33:46.462Z,7.53
2022-10-07T12:36:22.774Z,10.70
2022-10-07T12:39:01.629Z,10.23
2022-10-07T12:41:39.799Z,9.25
2022-10-07T12:44:27.688Z,8.45
2022-10-07T12:47:13.728Z,9.30
2022-10-07T12:49:49.828Z,12.57
2022-10-07T12:52:36.517Z,11.13
2022-10-07T12:55:10.879Z,9.48
2022-10-07T12:57:41.942Z,9.02
2022-10-07T13:00:24.385Z,11.95
2022-10-07T13:03:34.785Z,13.20
2022-10-07T13:06:32.873Z,11.27
2022-10-07T13:09:21.920Z,11.77
2022-10-07T13:12:12.803Z,9.77
2022-10-07T13:15:10.242Z,12.35
2022-10-07T13:17:49.502Z,9.45
2022-10-07T13:20:41.587Z,13.18
2022-10-07T13:23:26.082Z,10.53
2022-10-07T13:25:57.379Z,10.73
2022-10-07T13:28:30.818Z,8.95
2022-10-07T13:31:21.469Z,10.52
2022-10-07T13:33:50.179Z,8.20
2022-10-07T13:36:43.151Z,11.13
2022-10-07T13:39:21.696Z,6.68
2022-10-07T13:41:51.700Z,9.27
2022-10-07T13:44:21.317Z,8.20
2022-10-07T13:47:17.287Z,11.38
2022-10-07T13:49:47.102Z,7.10
2022-10-07T13:52:36.959Z,10.88
2022-10-07T13:55:32.558Z,8.40
2022-10-07T13:58:04.197Z,9.93
2022-10-07T14:00:42.144Z,11.65
2022-10-07T14:03:17.398Z,11.13
2022-10-07T14:05:52.221Z,10.50
2022-10-07T14:08:21.938Z,8.70
2022-10-07T14:10:54.155Z,7.32
2022-10-07T14:13:21.749Z,9.98
2022-10-07T14:15:53.524Z,8.83
2022-10-07T14:18:20.908Z,9.95
2022-10-07T14:20:57.249Z,9.52
2022-10-07T14:23:31.170Z,8.90
2022-10-07T14:26:04.039Z,10.55
2022-10-07T14:28:38.597Z,9.67
2022-10-07T14:31:27.421Z,11.43
2022-10-07T14:34:34.778Z,9.48
2022-10-07T14:37:01.899Z,9.13
2022-10-07T14:39:39.577Z,10.68
2022-10-07T14:42:13.184Z,10.90
2022-10-07T14:44:43.819Z,7.68
2022-10-07T14:47:15.517Z,11.48
2022-10-07T14:49:43.069Z,9.55
2022-10-07T14:52:19.286Z,8.02
2022-10-07T14:54:48.391Z,12.07
2022-10-07T14:57:15.538Z,12.65
2022-10-07T14:59:42.699Z,11.65
2022-10-07T15:02:12.522Z,12.40
2022-10-07T15:04:40.186Z,12.85
2022-10-07T15:07:07.509Z,14.82
2022-10-07T15:09:34.622Z,10.30
2022-10-07T15:12:04.909Z,11.52
2022-10-07T15:14:32.865Z,11.50
2022-10-07T15:17:00.217Z,9.38
2022-10-07T15:19:27.429Z,12.67
2022-10-07T15:21:56.164Z,11.77
2022-10-07T15:24:23.433Z,8.82
2022-10-07T15:26:51.042Z,9.85
2022-10-07T15:29:19.417Z,10.40
2022-10-07T15:31:46.550Z,11.10
2022-10-07T15:34:14.049Z,7.22
2022-10-07T15:36:41.198Z,7.85
2022-10-07T15:39:10.119Z,9.32
2022-10-07T15:41:42.199Z,8.35
2022-10-07T15:44:18.831Z,12.88
2022-10-07T15:46:47.491Z,11.77
2022-10-07T15:49:16.856Z,9.27
2022-10-07T15:51:46.083Z,9.60
2022-10-07T15:54:13.372Z,10.75
2022-10-07T15:56:41.419Z,11.33
2022-10-07T15:59:08.855Z,8.35
2022-10-07T16:01:36.173Z,10.10
2022-10-07T16:04:04.128Z,8.60
2022-10-07T16:06:34.323Z,7.80
2022-10-07T16:09:02.222Z,9.80
2022-10-07T16:11:31.232Z,11.20
2022-10-07T16:13:59.681Z,10.93
2022-10-07T16:16:28.226Z,8.93
2022-10-07T16:18:57.975Z,8.90
2022-10-07T16:21:29.064Z,8.13
2022-10-07T16:24:02.496Z,9.98
2022-10-07T16:26:30.527Z,11.27
2022-10-07T16:29:18.656Z,12.80
2022-10-07T16:31:47.423Z,9.60
2022-10-07T16:34:16.755Z,12.27
2022-10-07T16:36:47.856Z,9.02
2022-10-07T16:39:17.653Z,9.85
2022-10-07T16:41:46.643Z,12.25
2022-10-07T16:44:15.021Z,9.85
2022-10-07T16:46:43.071Z,10.85
2022-10-07T16:49:17.868Z,8.57
2022-10-07T16:51:46.378Z,11.90
2022-10-07T16:54:16.552Z,9.47
2022-10-07T16:56:52.304Z,9.00
2022-10-07T16:59:24.312Z,13.05
2022-10-07T17:01:56.691Z,9.05
2022-10-07T17:04:25.159Z,10.75
2022-10-07T17:06:53.169Z,11.48
2022-10-07T17:09:21.818Z,12.27
2022-10-07T17:11:49.125Z,10.95
2022-10-07T17:14:18.641Z,11.15
2022-10-07T17:16:48.302Z,8.75
2022-10-07T17:19:18.233Z,11.00
2022-10-07T17:21:48.007Z,11.05
2022-10-07T17:24:19.780Z,8.97
2022-10-07T17:26:47.586Z,11.30
2022-10-07T17:29:18.635Z,11.50
2022-10-07T17:31:48.206Z,14.25
2022-10-07T17:34:16.380Z,11.57
2022-10-07T17:36:43.827Z,12.90
2022-10-07T17:39:11.938Z,11.63
2022-10-07T17:41:40.026Z,13.13
2022-10-07T17:44:10.194Z,8.88
2022-10-07T17:46:39.182Z,10.38
2022-10-07T17:49:08.816Z,11.45
2022-10-07T17:51:37.323Z,7.75
2022-10-07T17:54:05.951Z,11.07
2022-10-07T17:56:34.543Z,9.32
2022-10-07T17:59:02.445Z,10.02
2022-10-07T18:01:32.776Z,7.37
2022-10-07T18:04:02.461Z,10.27
2022-10-07T18:06:33.175Z,10.73
2022-10-07T18:09:04.245Z,10.63
2022-10-07T18:11:50.881Z,11.15
2022-10-07T18:14:37.609Z,9.90
2022-10-07T18:17:05.777Z,10.57
2022-10-07T18:19:33.064Z,10.60
2022-10-07T18:22:00.563Z,13.90
2022-10-07T18:24:29.294Z,9.98
2022-10-07T18:27:00.735Z,10.35
2022-10-07T18:29:34.173Z,7.43
2022-10-07T18:32:01.792Z,9.77
2022-10-07T18:34:29.064Z,10.00
2022-10-07T18:36:57.348Z,10.48
2022-10-07T18:39:27.466Z,10.27
2022-10-07T18:41:55.243Z,12.03
2022-10-07T18:44:22.600Z,9.63
2022-10-07T18:46:49.790Z,9.93
2022-10-07T18:49:16.994Z,10.80
2022-10-07T18:51:46.787Z,10.57
2022-10-07T18:54:14.046Z,8.18
2022-10-07T18:56:41.771Z,7.82
2022-10-07T18:59:10.139Z,9.73
2022-10-07T19:01:37.985Z,9.82
2022-10-07T19:04:07.224Z,9.20
2022-10-07T19:06:39.559Z,11.40
2022-10-07T19:09:09.271Z,8.50
2022-10-07T19:11:36.450Z,10.57
2022-10-07T19:14:03.667Z,11.47
2022-10-07T19:16:34.287Z,8.50
2022-10-07T19:19:02.811Z,9.30
2022-10-07T19:21:31.653Z,8.57
2022-10-07T19:24:01.562Z,8.87
2022-10-07T19:26:32.270Z,10.70
2022-10-07T19:29:00.233Z,6.93
2022-10-07T19:31:35.060Z,9.85
2022-10-07T19:34:05.305Z,7.95
2022-10-07T19:36:36.938Z,9.90
2022-10-07T19:39:04.655Z,10.75
2022-10-07T19:41:33.640Z,10.75
2022-10-07T19:44:01.266Z,9.15
2022-10-07T19:46:30.776Z,10.13
2022-10-07T19:49:00.107Z,8.00
2022-10-07T19:51:30.243Z,10.83
2022-10-07T19:53:58.767Z,9.30
2022-10-07T19:56:28.099Z,9.87
2022-10-07T19:59:02.253Z,8.03
2022-10-07T20:01:33.979Z,8.77
2022-10-07T20:04:06.634Z,8.00
2022-10-07T20:06:38.743Z,8.32
2022-10-07T20:09:08.178Z,12.00
2022-10-07T20:11:36.203Z,7.32
2022-10-07T20:14:05.789Z,8.45
2022-10-07T20:16:34.214Z,10.93
2022-10-07T20:19:05.553Z,9.50
2022-10-07T20:21:35.646Z,9.43
2022-10-07T20:24:04.079Z,6.75
2022-10-07T20:26:34.171Z,8.68
2022-10-07T20:29:03.883Z,7.30
2022-10-07T20:31:34.964Z,10.43
2022-10-07T20:34:02.750Z,9.00
2022-10-07T20:36:35.607Z,10.93
2022-10-07T20:39:31.082Z,9.88
2022-10-07T20:42:17.026Z,10.45
2022-10-07T20:44:44.278Z,10.10
2022-10-07T20:47:11.506Z,11.00
2022-10-07T20:49:41.403Z,7.90
2022-10-07T20:52:16.978Z,9.05
2022-10-07T20:54:45.614Z,8.88
2022-10-07T20:57:18.203Z,8.83
2022-10-07T20:59:45.469Z,6.82
2022-10-07T21:02:14.597Z,8.48
2022-10-07T21:04:42.150Z,10.60
2022-10-07T21:07:10.049Z,7.85
2022-10-07T21:09:37.253Z,8.60
2022-10-07T21:12:07.244Z,6.40
2022-10-07T21:14:35.479Z,8.27
2022-10-07T21:17:04.706Z,10.73
2022-10-07T21:19:32.992Z,8.40
2022-10-07T21:22:00.198Z,11.05
2022-10-07T21:24:28.749Z,11.55
2022-10-07T21:26:55.918Z,9.32
2022-10-07T21:29:23.106Z,10.23
2022-10-07T21:31:50.348Z,8.88
2022-10-07T21:34:17.524Z,12.27
2022-10-07T21:36:49.215Z,10.80
2022-10-07T21:39:17.741Z,9.50
2022-10-07T21:41:44.932Z,8.63
2022-10-07T21:44:13.304Z,10.63
2022-10-07T21:46:43.788Z,10.50
2022-10-07T21:49:11.067Z,7.23
2022-10-07T21:51:38.299Z,10.67
2022-10-07T21:54:05.979Z,6.87
2022-10-07T21:56:34.388Z,9.70
2022-10-07T21:59:03.598Z,8.95
2022-10-07T22:01:32.160Z,10.80
2022-10-07T22:04:03.511Z,6.90
2022-10-07T22:06:50.037Z,8.45
2022-10-07T22:09:20.183Z,9.13
2022-10-07T22:11:48.211Z,8.40
2022-10-07T22:14:15.391Z,7.18
2022-10-07T22:16:42.681Z,9.03
2022-10-07T22:19:11.035Z,8.63
2022-10-07T22:21:40.148Z,8.60
2022-10-07T22:24:09.042Z,8.55
2022-10-07T22:26:40.422Z,5.80
2022-10-07T22:29:09.516Z,9.30
2022-10-07T22:31:37.714Z,12.25
2022-10-07T22:34:06.358Z,13.60
2022-10-07T22:36:33.691Z,11.25
2022-10-07T22:39:01.366Z,12.00
2022-10-07T22:41:29.091Z,9.43
2022-10-07T22:43:56.466Z,11.95
2022-10-07T22:46:28.100Z,10.60
2022-10-07T22:48:57.741Z,11.57
2022-10-07T22:51:29.758Z,13.73
2022-10-07T22:53:57.490Z,12.38
2022-10-07T22:56:27.854Z,11.20
2022-10-07T22:58:58.740Z,11.82
2022-10-07T23:01:31.075Z,11.18
2022-10-07T23:04:02.986Z,11.77
2022-10-07T23:06:32.950Z,11.20
2022-10-07T23:09:01.043Z,9.40
2022-10-07T23:11:29.930Z,11.88
2022-10-07T23:13:57.181Z,10.90
2022-10-07T23:16:27.102Z,13.68
2022-10-07T23:18:54.285Z,9.17
2022-10-07T23:21:25.070Z,11.57
2022-10-07T23:23:56.587Z,10.50
2022-10-07T23:26:27.129Z,12.82
2022-10-07T23:28:56.801Z,10.00
2022-10-07T23:31:27.171Z,11.30
2022-10-07T23:33:56.314Z,13.73
2022-10-07T23:36:24.928Z,11.18
2022-10-07T23:38:52.926Z,12.07
2022-10-07T23:41:26.259Z,11.68
2022-10-07T23:43:57.343Z,9.05
2022-10-07T23:46:26.270Z,11.98
2022-10-07T23:48:54.750Z,9.75
2022-10-07T23:51:23.768Z,8.15
2022-10-07T23:53:51.450Z,10.00
2022-10-07T23:56:18.952Z,11.38
2022-10-07T23:58:46.255Z,7.88
